Decoded Metar for LFSG (EPINAL in FRANCE) (IATA:EPL) | Meteo·Mobile Aviation Weather
aviador You're here:

LFSG Decoded Metar

EPINAL in FRANCE
Report Time2018-12-14 12:30:00
UTC Time2018-12-14 12:38:13
Flight Rules mvfr MVFR
Wind040° at 10 kt
W.Decomp.*RWY 08: 7.5 kt HW 6.6 kt LCW
W.Rank040° ranks 12
Current wind is above 040° avg. (7.0)
Visibility9999 m
Phenomena:N/A
Clouds:Broken 024 Hf
Expected CloudBase > 1,600 ft AGL from Temp-Dew spread
Ceiling2,400 ft
Temp00°C (ISA -13)
Dew Point-4°C (75% RH)
AAT-6.1°C
QNH1018 hPa
Density Alt-587 ft
Elevation1,083 ft
Report Wrong Elevation
Raw Report
METAR LFSG 141230Z AUTO 04010KT 9999 BKN024 00/M04 Q1018=

Extra information for LFSG:More info

Metar Taf Metar & Taf Last 4 Metars F.Rules Stats Wind Profile Meteogram Temp Stats Airport Information Weather charts Add Link Nearby VenuesMetar ALERT Operation Metar Decoded Social comments